sensor_id;sensor_type;location;lat;lon;timestamp;P1;durP1;ratioP1;P2;durP2;ratioP2
24435;SDS011;12616;52.470;13.436;2022-12-22T00:02:27;23.92;;;18.38;;
24435;SDS011;12616;52.470;13.436;2022-12-22T00:05:17;27.10;;;18.60;;
24435;SDS011;12616;52.470;13.436;2022-12-22T00:08:09;24.60;;;16.92;;
24435;SDS011;12616;52.470;13.436;2022-12-22T00:10:57;28.42;;;18.63;;
24435;SDS011;12616;52.470;13.436;2022-12-22T00:16:51;25.05;;;18.77;;
24435;SDS011;12616;52.470;13.436;2022-12-22T00:19:36;26.63;;;19.88;;
24435;SDS011;12616;52.470;13.436;2022-12-22T00:22:23;27.48;;;19.02;;
24435;SDS011;12616;52.470;13.436;2022-12-22T00:25:15;25.67;;;18.13;;
24435;SDS011;12616;52.470;13.436;2022-12-22T00:28:04;27.20;;;19.85;;
24435;SDS011;12616;52.470;13.436;2022-12-22T00:30:56;23.67;;;18.17;;
24435;SDS011;12616;52.470;13.436;2022-12-22T00:33:43;25.05;;;17.98;;
24435;SDS011;12616;52.470;13.436;2022-12-22T00:36:28;26.60;;;19.90;;
24435;SDS011;12616;52.470;13.436;2022-12-22T00:39:13;27.13;;;18.35;;
24435;SDS011;12616;52.470;13.436;2022-12-22T00:41:57;25.92;;;17.88;;
24435;SDS011;12616;52.470;13.436;2022-12-22T00:44:42;24.73;;;17.50;;
24435;SDS011;12616;52.470;13.436;2022-12-22T00:47:30;25.48;;;18.10;;
24435;SDS011;12616;52.470;13.436;2022-12-22T00:50:25;30.10;;;16.65;;
24435;SDS011;12616;52.470;13.436;2022-12-22T00:53:22;23.10;;;17.48;;
24435;SDS011;12616;52.470;13.436;2022-12-22T00:56:07;20.92;;;17.80;;
24435;SDS011;12616;52.470;13.436;2022-12-22T00:58:53;20.67;;;16.77;;
24435;SDS011;12616;52.470;13.436;2022-12-22T01:01:40;21.08;;;17.20;;
24435;SDS011;12616;52.470;13.436;2022-12-22T01:04:25;22.45;;;16.88;;
24435;SDS011;12616;52.470;13.436;2022-12-22T01:07:12;23.08;;;16.02;;
24435;SDS011;12616;52.470;13.436;2022-12-22T01:09:58;24.95;;;16.42;;
24435;SDS011;12616;52.470;13.436;2022-12-22T01:12:43;22.10;;;16.45;;
24435;SDS011;12616;52.470;13.436;2022-12-22T01:15:28;25.60;;;18.60;;
24435;SDS011;12616;52.470;13.436;2022-12-22T01:18:14;22.02;;;17.55;;
24435;SDS011;12616;52.470;13.436;2022-12-22T01:20:59;20.77;;;16.05;;
24435;SDS011;12616;52.470;13.436;2022-12-22T01:23:47;25.17;;;17.48;;
24435;SDS011;12616;52.470;13.436;2022-12-22T01:26:32;25.48;;;17.02;;
24435;SDS011;12616;52.470;13.436;2022-12-22T01:29:19;27.10;;;17.02;;
24435;SDS011;12616;52.470;13.436;2022-12-22T01:32:04;22.50;;;16.75;;
24435;SDS011;12616;52.470;13.436;2022-12-22T01:34:52;27.00;;;19.42;;
24435;SDS011;12616;52.470;13.436;2022-12-22T01:37:37;24.42;;;17.10;;
24435;SDS011;12616;52.470;13.436;2022-12-22T01:40:23;26.52;;;18.05;;
24435;SDS011;12616;52.470;13.436;2022-12-22T01:43:14;22.98;;;17.52;;
24435;SDS011;12616;52.470;13.436;2022-12-22T01:46:18;25.88;;;18.02;;
24435;SDS011;12616;52.470;13.436;2022-12-22T01:49:06;23.98;;;15.55;;
24435;SDS011;12616;52.470;13.436;2022-12-22T01:51:51;22.42;;;15.43;;
24435;SDS011;12616;52.470;13.436;2022-12-22T01:54:35;23.00;;;15.90;;
24435;SDS011;12616;52.470;13.436;2022-12-22T01:57:26;21.42;;;16.38;;
24435;SDS011;12616;52.470;13.436;2022-12-22T02:00:24;22.30;;;15.60;;
24435;SDS011;12616;52.470;13.436;2022-12-22T02:03:51;23.30;;;17.80;;
24435;SDS011;12616;52.470;13.436;2022-12-22T02:06:44;26.30;;;15.50;;
24435;SDS011;12616;52.470;13.436;2022-12-22T02:09:47;21.30;;;15.80;;
24435;SDS011;12616;52.470;13.436;2022-12-22T02:12:58;26.27;;;15.82;;
24435;SDS011;12616;52.470;13.436;2022-12-22T02:15:55;22.95;;;15.10;;
24435;SDS011;12616;52.470;13.436;2022-12-22T02:18:57;23.50;;;16.30;;
24435;SDS011;12616;52.470;13.436;2022-12-22T02:22:03;21.20;;;15.00;;
24435;SDS011;12616;52.470;13.436;2022-12-22T02:25:02;16.92;;;13.05;;
24435;SDS011;12616;52.470;13.436;2022-12-22T02:27:53;18.48;;;14.23;;
24435;SDS011;12616;52.470;13.436;2022-12-22T02:30:44;25.25;;;15.50;;
24435;SDS011;12616;52.470;13.436;2022-12-22T02:33:34;26.58;;;15.55;;
24435;SDS011;12616;52.470;13.436;2022-12-22T02:36:25;18.45;;;13.55;;
24435;SDS011;12616;52.470;13.436;2022-12-22T02:39:34;19.15;;;13.48;;
24435;SDS011;12616;52.470;13.436;2022-12-22T02:42:41;22.67;;;14.07;;
24435;SDS011;12616;52.470;13.436;2022-12-22T02:45:38;21.17;;;14.30;;
24435;SDS011;12616;52.470;13.436;2022-12-22T02:48:31;19.05;;;13.55;;
24435;SDS011;12616;52.470;13.436;2022-12-22T02:51:21;20.25;;;14.02;;
24435;SDS011;12616;52.470;13.436;2022-12-22T02:54:09;19.88;;;14.10;;
24435;SDS011;12616;52.470;13.436;2022-12-22T02:56:55;17.00;;;12.63;;
24435;SDS011;12616;52.470;13.436;2022-12-22T02:59:40;17.70;;;13.38;;
24435;SDS011;12616;52.470;13.436;2022-12-22T03:02:26;20.02;;;14.05;;
24435;SDS011;12616;52.470;13.436;2022-12-22T03:05:10;15.52;;;13.25;;
24435;SDS011;12616;52.470;13.436;2022-12-22T03:07:55;15.65;;;12.30;;
24435;SDS011;12616;52.470;13.436;2022-12-22T03:10:39;17.88;;;12.32;;
24435;SDS011;12616;52.470;13.436;2022-12-22T03:13:23;18.95;;;13.30;;
24435;SDS011;12616;52.470;13.436;2022-12-22T03:16:17;17.23;;;12.18;;
24435;SDS011;12616;52.470;13.436;2022-12-22T03:19:08;17.45;;;11.45;;
24435;SDS011;12616;52.470;13.436;2022-12-22T03:25:42;15.07;;;12.82;;
24435;SDS011;12616;52.470;13.436;2022-12-22T03:29:59;18.23;;;13.25;;
24435;SDS011;12616;52.470;13.436;2022-12-22T03:33:25;18.17;;;12.57;;
24435;SDS011;12616;52.470;13.436;2022-12-22T03:45:28;18.50;;;13.98;;
24435;SDS011;12616;52.470;13.436;2022-12-22T03:48:31;19.70;;;12.45;;
24435;SDS011;12616;52.470;13.436;2022-12-22T03:54:49;16.75;;;13.23;;
24435;SDS011;12616;52.470;13.436;2022-12-22T04:12:34;14.70;;;11.77;;
24435;SDS011;12616;52.470;13.436;2022-12-22T04:22:14;22.55;;;16.00;;
24435;SDS011;12616;52.470;13.436;2022-12-22T04:35:28;21.90;;;15.70;;
24435;SDS011;12616;52.470;13.436;2022-12-22T04:38:22;25.50;;;17.00;;
24435;SDS011;12616;52.470;13.436;2022-12-22T04:42:24;25.40;;;16.80;;
24435;SDS011;12616;52.470;13.436;2022-12-22T04:44:26;24.98;;;16.80;;
24435;SDS011;12616;52.470;13.436;2022-12-22T04:47:01;20.70;;;15.63;;
24435;SDS011;12616;52.470;13.436;2022-12-22T04:50:03;21.75;;;15.25;;
24435;SDS011;12616;52.470;13.436;2022-12-22T04:52:37;22.40;;;14.60;;
24435;SDS011;12616;52.470;13.436;2022-12-22T04:55:10;24.50;;;16.00;;
24435;SDS011;12616;52.470;13.436;2022-12-22T04:57:41;23.92;;;16.67;;
24435;SDS011;12616;52.470;13.436;2022-12-22T05:07:30;20.40;;;14.75;;
24435;SDS011;12616;52.470;13.436;2022-12-22T05:09:58;23.33;;;15.20;;
24435;SDS011;12616;52.470;13.436;2022-12-22T05:12:25;26.80;;;17.83;;
24435;SDS011;12616;52.470;13.436;2022-12-22T05:15:10;23.70;;;16.88;;
24435;SDS011;12616;52.470;13.436;2022-12-22T05:17:37;22.35;;;15.85;;
24435;SDS011;12616;52.470;13.436;2022-12-22T05:20:04;25.38;;;16.10;;
24435;SDS011;12616;52.470;13.436;2022-12-22T05:22:31;30.75;;;16.15;;
24435;SDS011;12616;52.470;13.436;2022-12-22T05:24:59;24.90;;;17.67;;
24435;SDS011;12616;52.470;13.436;2022-12-22T05:27:26;25.60;;;15.77;;
24435;SDS011;12616;52.470;13.436;2022-12-22T05:29:53;27.02;;;19.63;;
24435;SDS011;12616;52.470;13.436;2022-12-22T05:32:20;24.40;;;17.23;;
24435;SDS011;12616;52.470;13.436;2022-12-22T05:34:47;26.48;;;17.30;;
24435;SDS011;12616;52.470;13.436;2022-12-22T05:37:13;34.90;;;17.02;;
24435;SDS011;12616;52.470;13.436;2022-12-22T05:39:40;30.25;;;17.63;;
24435;SDS011;12616;52.470;13.436;2022-12-22T05:42:08;27.90;;;18.15;;
24435;SDS011;12616;52.470;13.436;2022-12-22T05:44:35;25.13;;;16.25;;
24435;SDS011;12616;52.470;13.436;2022-12-22T05:47:02;34.35;;;18.27;;
24435;SDS011;12616;52.470;13.436;2022-12-22T05:49:29;34.92;;;19.65;;
24435;SDS011;12616;52.470;13.436;2022-12-22T05:51:59;30.05;;;18.17;;
24435;SDS011;12616;52.470;13.436;2022-12-22T05:54:25;26.88;;;18.45;;
24435;SDS011;12616;52.470;13.436;2022-12-22T05:56:52;29.60;;;18.85;;
24435;SDS011;12616;52.470;13.436;2022-12-22T05:59:20;36.05;;;20.63;;
24435;SDS011;12616;52.470;13.436;2022-12-22T06:01:47;35.67;;;21.65;;
24435;SDS011;12616;52.470;13.436;2022-12-22T06:04:14;31.52;;;21.20;;
24435;SDS011;12616;52.470;13.436;2022-12-22T06:06:41;30.75;;;20.08;;
24435;SDS011;12616;52.470;13.436;2022-12-22T06:09:08;36.45;;;20.27;;
24435;SDS011;12616;52.470;13.436;2022-12-22T06:11:34;31.70;;;19.50;;
24435;SDS011;12616;52.470;13.436;2022-12-22T06:14:01;30.42;;;20.10;;
24435;SDS011;12616;52.470;13.436;2022-12-22T06:16:29;38.40;;;20.33;;
24435;SDS011;12616;52.470;13.436;2022-12-22T06:18:56;37.65;;;22.00;;
24435;SDS011;12616;52.470;13.436;2022-12-22T06:21:23;34.13;;;20.90;;
24435;SDS011;12616;52.470;13.436;2022-12-22T06:23:50;30.75;;;20.33;;
24435;SDS011;12616;52.470;13.436;2022-12-22T06:26:19;35.50;;;20.30;;
24435;SDS011;12616;52.470;13.436;2022-12-22T06:28:46;33.88;;;21.02;;
24435;SDS011;12616;52.470;13.436;2022-12-22T06:31:13;41.15;;;27.42;;
24435;SDS011;12616;52.470;13.436;2022-12-22T06:33:41;41.50;;;25.88;;
24435;SDS011;12616;52.470;13.436;2022-12-22T06:36:09;35.10;;;21.30;;
24435;SDS011;12616;52.470;13.436;2022-12-22T06:38:36;31.38;;;20.10;;
24435;SDS011;12616;52.470;13.436;2022-12-22T06:41:03;28.67;;;19.95;;
24435;SDS011;12616;52.470;13.436;2022-12-22T06:43:30;30.55;;;20.23;;
24435;SDS011;12616;52.470;13.436;2022-12-22T06:45:56;33.70;;;20.55;;
24435;SDS011;12616;52.470;13.436;2022-12-22T06:48:24;30.10;;;19.83;;
24435;SDS011;12616;52.470;13.436;2022-12-22T06:50:55;28.33;;;20.20;;
24435;SDS011;12616;52.470;13.436;2022-12-22T06:53:23;29.73;;;18.92;;
24435;SDS011;12616;52.470;13.436;2022-12-22T06:55:50;30.35;;;18.63;;
24435;SDS011;12616;52.470;13.436;2022-12-22T06:58:17;32.53;;;19.95;;
24435;SDS011;12616;52.470;13.436;2022-12-22T07:00:44;33.15;;;20.10;;
24435;SDS011;12616;52.470;13.436;2022-12-22T07:03:13;33.53;;;21.77;;
24435;SDS011;12616;52.470;13.436;2022-12-22T07:05:40;30.33;;;18.80;;
24435;SDS011;12616;52.470;13.436;2022-12-22T07:08:08;31.42;;;19.25;;
24435;SDS011;12616;52.470;13.436;2022-12-22T07:10:35;33.28;;;20.60;;
24435;SDS011;12616;52.470;13.436;2022-12-22T07:13:21;34.90;;;18.73;;
24435;SDS011;12616;52.470;13.436;2022-12-22T07:15:48;29.38;;;18.88;;
24435;SDS011;12616;52.470;13.436;2022-12-22T07:18:15;28.15;;;18.10;;
24435;SDS011;12616;52.470;13.436;2022-12-22T07:20:42;33.30;;;20.58;;
24435;SDS011;12616;52.470;13.436;2022-12-22T07:23:10;28.05;;;18.95;;
24435;SDS011;12616;52.470;13.436;2022-12-22T07:25:37;31.02;;;19.45;;
24435;SDS011;12616;52.470;13.436;2022-12-22T07:28:04;31.10;;;18.60;;
24435;SDS011;12616;52.470;13.436;2022-12-22T07:30:32;38.45;;;20.30;;
24435;SDS011;12616;52.470;13.436;2022-12-22T07:33:00;36.08;;;19.58;;
24435;SDS011;12616;52.470;13.436;2022-12-22T07:35:27;37.65;;;21.30;;
24435;SDS011;12616;52.470;13.436;2022-12-22T07:37:54;29.77;;;20.60;;
24435;SDS011;12616;52.470;13.436;2022-12-22T07:40:22;31.48;;;19.50;;
24435;SDS011;12616;52.470;13.436;2022-12-22T07:42:49;32.05;;;20.95;;
24435;SDS011;12616;52.470;13.436;2022-12-22T07:45:19;33.65;;;20.52;;
24435;SDS011;12616;52.470;13.436;2022-12-22T07:47:46;28.10;;;19.20;;
24435;SDS011;12616;52.470;13.436;2022-12-22T07:50:14;29.70;;;17.60;;
24435;SDS011;12616;52.470;13.436;2022-12-22T07:52:52;33.78;;;19.55;;
24435;SDS011;12616;52.470;13.436;2022-12-22T07:55:20;38.58;;;20.05;;
24435;SDS011;12616;52.470;13.436;2022-12-22T07:57:48;32.58;;;19.25;;
24435;SDS011;12616;52.470;13.436;2022-12-22T08:00:16;30.70;;;17.50;;
24435;SDS011;12616;52.470;13.436;2022-12-22T08:02:47;28.08;;;18.90;;
24435;SDS011;12616;52.470;13.436;2022-12-22T08:05:14;33.00;;;18.33;;
24435;SDS011;12616;52.470;13.436;2022-12-22T08:07:41;28.48;;;17.52;;
24435;SDS011;12616;52.470;13.436;2022-12-22T08:10:08;26.85;;;16.98;;
24435;SDS011;12616;52.470;13.436;2022-12-22T08:12:36;37.47;;;19.13;;
24435;SDS011;12616;52.470;13.436;2022-12-22T08:15:05;25.60;;;16.27;;
24435;SDS011;12616;52.470;13.436;2022-12-22T08:17:33;28.48;;;17.70;;
24435;SDS011;12616;52.470;13.436;2022-12-22T08:20:01;32.15;;;19.83;;
24435;SDS011;12616;52.470;13.436;2022-12-22T08:22:28;32.47;;;19.30;;
24435;SDS011;12616;52.470;13.436;2022-12-22T08:24:56;32.65;;;20.23;;
24435;SDS011;12616;52.470;13.436;2022-12-22T08:27:25;31.17;;;18.48;;
24435;SDS011;12616;52.470;13.436;2022-12-22T08:29:56;30.10;;;17.20;;
24435;SDS011;12616;52.470;13.436;2022-12-22T08:32:25;29.05;;;18.55;;
24435;SDS011;12616;52.470;13.436;2022-12-22T08:34:52;26.00;;;18.55;;
24435;SDS011;12616;52.470;13.436;2022-12-22T08:37:21;31.77;;;18.65;;
24435;SDS011;12616;52.470;13.436;2022-12-22T08:39:52;29.00;;;17.65;;
24435;SDS011;12616;52.470;13.436;2022-12-22T08:42:21;23.45;;;17.50;;
24435;SDS011;12616;52.470;13.436;2022-12-22T08:44:50;27.45;;;18.58;;
24435;SDS011;12616;52.470;13.436;2022-12-22T08:47:18;34.05;;;19.85;;
24435;SDS011;12616;52.470;13.436;2022-12-22T08:49:47;24.50;;;17.75;;
24435;SDS011;12616;52.470;13.436;2022-12-22T08:52:14;28.13;;;17.23;;
24435;SDS011;12616;52.470;13.436;2022-12-22T08:54:42;27.73;;;17.60;;
24435;SDS011;12616;52.470;13.436;2022-12-22T08:57:08;29.40;;;18.73;;
24435;SDS011;12616;52.470;13.436;2022-12-22T08:59:35;29.35;;;19.63;;
24435;SDS011;12616;52.470;13.436;2022-12-22T09:02:02;28.95;;;17.70;;
24435;SDS011;12616;52.470;13.436;2022-12-22T09:04:30;26.50;;;16.92;;
24435;SDS011;12616;52.470;13.436;2022-12-22T09:06:59;30.70;;;18.95;;
24435;SDS011;12616;52.470;13.436;2022-12-22T09:09:29;22.75;;;16.75;;
24435;SDS011;12616;52.470;13.436;2022-12-22T09:11:58;23.35;;;17.33;;
24435;SDS011;12616;52.470;13.436;2022-12-22T09:14:26;25.02;;;17.13;;
24435;SDS011;12616;52.470;13.436;2022-12-22T09:16:53;23.58;;;16.35;;
24435;SDS011;12616;52.470;13.436;2022-12-22T09:19:19;27.50;;;18.05;;
24435;SDS011;12616;52.470;13.436;2022-12-22T09:21:47;28.50;;;16.60;;
24435;SDS011;12616;52.470;13.436;2022-12-22T09:24:15;24.02;;;15.45;;
24435;SDS011;12616;52.470;13.436;2022-12-22T09:26:42;21.80;;;14.98;;
24435;SDS011;12616;52.470;13.436;2022-12-22T09:29:09;26.60;;;17.70;;
24435;SDS011;12616;52.470;13.436;2022-12-22T09:31:39;25.10;;;16.08;;
24435;SDS011;12616;52.470;13.436;2022-12-22T09:34:06;23.65;;;15.68;;
24435;SDS011;12616;52.470;13.436;2022-12-22T09:36:33;22.92;;;15.60;;
24435;SDS011;12616;52.470;13.436;2022-12-22T09:39:03;19.77;;;15.82;;
24435;SDS011;12616;52.470;13.436;2022-12-22T09:41:33;32.78;;;18.02;;
24435;SDS011;12616;52.470;13.436;2022-12-22T09:44:02;29.95;;;18.52;;
24435;SDS011;12616;52.470;13.436;2022-12-22T09:46:31;27.58;;;16.63;;
24435;SDS011;12616;52.470;13.436;2022-12-22T09:49:00;33.65;;;21.27;;
24435;SDS011;12616;52.470;13.436;2022-12-22T09:51:27;24.58;;;18.65;;
24435;SDS011;12616;52.470;13.436;2022-12-22T09:53:56;23.50;;;16.35;;
24435;SDS011;12616;52.470;13.436;2022-12-22T09:56:24;24.75;;;16.90;;
24435;SDS011;12616;52.470;13.436;2022-12-22T09:58:54;22.27;;;16.55;;
24435;SDS011;12616;52.470;13.436;2022-12-22T10:01:35;24.20;;;16.10;;
24435;SDS011;12616;52.470;13.436;2022-12-22T10:04:12;22.60;;;15.02;;
24435;SDS011;12616;52.470;13.436;2022-12-22T10:06:49;20.70;;;14.20;;
24435;SDS011;12616;52.470;13.436;2022-12-22T10:09:24;19.05;;;13.40;;
24435;SDS011;12616;52.470;13.436;2022-12-22T10:11:53;27.85;;;15.75;;
24435;SDS011;12616;52.470;13.436;2022-12-22T10:14:24;24.77;;;16.20;;
24435;SDS011;12616;52.470;13.436;2022-12-22T10:19:45;20.58;;;14.85;;
24435;SDS011;12616;52.470;13.436;2022-12-22T10:22:21;23.63;;;15.15;;
24435;SDS011;12616;52.470;13.436;2022-12-22T10:24:53;22.40;;;15.23;;
24435;SDS011;12616;52.470;13.436;2022-12-22T10:27:21;22.45;;;14.27;;
24435;SDS011;12616;52.470;13.436;2022-12-22T10:29:54;20.85;;;13.65;;
24435;SDS011;12616;52.470;13.436;2022-12-22T10:32:40;19.65;;;13.65;;
24435;SDS011;12616;52.470;13.436;2022-12-22T10:35:07;22.97;;;16.70;;
24435;SDS011;12616;52.470;13.436;2022-12-22T10:37:35;17.80;;;12.33;;
24435;SDS011;12616;52.470;13.436;2022-12-22T10:40:13;18.50;;;13.93;;
24435;SDS011;12616;52.470;13.436;2022-12-22T10:42:46;39.72;;;24.00;;
24435;SDS011;12616;52.470;13.436;2022-12-22T10:45:19;21.70;;;14.88;;
24435;SDS011;12616;52.470;13.436;2022-12-22T10:47:48;20.45;;;13.45;;
24435;SDS011;12616;52.470;13.436;2022-12-22T10:50:18;18.08;;;13.15;;
24435;SDS011;12616;52.470;13.436;2022-12-22T10:52:50;17.38;;;13.00;;
24435;SDS011;12616;52.470;13.436;2022-12-22T10:55:21;17.45;;;13.80;;
24435;SDS011;12616;52.470;13.436;2022-12-22T10:57:49;18.90;;;13.68;;
24435;SDS011;12616;52.470;13.436;2022-12-22T11:00:23;18.10;;;13.32;;
24435;SDS011;12616;52.470;13.436;2022-12-22T11:02:52;15.97;;;12.20;;
24435;SDS011;12616;52.470;13.436;2022-12-22T11:05:19;19.45;;;13.23;;
24435;SDS011;12616;52.470;13.436;2022-12-22T11:11:38;17.05;;;12.20;;
24435;SDS011;12616;52.470;13.436;2022-12-22T11:34:49;19.00;;;12.10;;
24435;SDS011;12616;52.470;13.436;2022-12-22T11:38:36;16.40;;;13.13;;
24435;SDS011;12616;52.470;13.436;2022-12-22T11:44:11;25.00;;;16.83;;
24435;SDS011;12616;52.470;13.436;2022-12-22T11:46:53;20.77;;;16.40;;
24435;SDS011;12616;52.470;13.436;2022-12-22T11:49:30;23.50;;;16.00;;
24435;SDS011;12616;52.470;13.436;2022-12-22T11:52:31;19.00;;;15.70;;
24435;SDS011;12616;52.470;13.436;2022-12-22T11:55:10;19.17;;;14.20;;
24435;SDS011;12616;52.470;13.436;2022-12-22T11:57:44;15.37;;;13.33;;
24435;SDS011;12616;52.470;13.436;2022-12-22T12:00:23;12.93;;;11.50;;
24435;SDS011;12616;52.470;13.436;2022-12-22T12:05:53;13.57;;;12.10;;
24435;SDS011;12616;52.470;13.436;2022-12-22T12:08:35;19.30;;;12.67;;
24435;SDS011;12616;52.470;13.436;2022-12-22T12:11:13;19.27;;;13.77;;
24435;SDS011;12616;52.470;13.436;2022-12-22T12:13:52;17.53;;;12.13;;
24435;SDS011;12616;52.470;13.436;2022-12-22T12:16:28;19.90;;;14.03;;
24435;SDS011;12616;52.470;13.436;2022-12-22T12:19:10;15.67;;;12.80;;
24435;SDS011;12616;52.470;13.436;2022-12-22T12:22:00;16.53;;;13.80;;
24435;SDS011;12616;52.470;13.436;2022-12-22T12:24:38;18.77;;;14.50;;
24435;SDS011;12616;52.470;13.436;2022-12-22T12:27:21;18.47;;;14.40;;
24435;SDS011;12616;52.470;13.436;2022-12-22T12:30:04;20.40;;;14.20;;
24435;SDS011;12616;52.470;13.436;2022-12-22T12:32:43;23.03;;;13.77;;
24435;SDS011;12616;52.470;13.436;2022-12-22T12:35:33;17.83;;;13.43;;
24435;SDS011;12616;52.470;13.436;2022-12-22T12:38:09;19.03;;;13.60;;
24435;SDS011;12616;52.470;13.436;2022-12-22T12:40:45;17.50;;;15.63;;
24435;SDS011;12616;52.470;13.436;2022-12-22T12:43:18;21.00;;;17.30;;
24435;SDS011;12616;52.470;13.436;2022-12-22T12:45:46;17.70;;;14.57;;
24435;SDS011;12616;52.470;13.436;2022-12-22T12:57:08;14.53;;;12.23;;
24435;SDS011;12616;52.470;13.436;2022-12-22T12:59:46;20.40;;;13.73;;
24435;SDS011;12616;52.470;13.436;2022-12-22T13:02:33;14.30;;;11.80;;
24435;SDS011;12616;52.470;13.436;2022-12-22T13:13:48;17.20;;;11.80;;
24435;SDS011;12616;52.470;13.436;2022-12-22T13:16:23;17.33;;;12.97;;
24435;SDS011;12616;52.470;13.436;2022-12-22T13:18:53;14.30;;;12.07;;
24435;SDS011;12616;52.470;13.436;2022-12-22T13:21:26;15.57;;;12.60;;
24435;SDS011;12616;52.470;13.436;2022-12-22T13:24:00;17.83;;;13.90;;
24435;SDS011;12616;52.470;13.436;2022-12-22T13:26:31;15.63;;;11.73;;
24435;SDS011;12616;52.470;13.436;2022-12-22T13:29:02;17.80;;;14.27;;
24435;SDS011;12616;52.470;13.436;2022-12-22T13:31:35;16.53;;;12.10;;
24435;SDS011;12616;52.470;13.436;2022-12-22T13:34:11;16.00;;;12.17;;
24435;SDS011;12616;52.470;13.436;2022-12-22T13:36:57;16.40;;;13.50;;
24435;SDS011;12616;52.470;13.436;2022-12-22T13:39:25;17.77;;;12.33;;
24435;SDS011;12616;52.470;13.436;2022-12-22T13:41:52;14.23;;;12.50;;
24435;SDS011;12616;52.470;13.436;2022-12-22T13:44:27;16.10;;;12.40;;
24435;SDS011;12616;52.470;13.436;2022-12-22T13:47:00;17.10;;;13.50;;
24435;SDS011;12616;52.470;13.436;2022-12-22T13:49:28;14.93;;;12.67;;
24435;SDS011;12616;52.470;13.436;2022-12-22T13:54:43;13.57;;;11.27;;
24435;SDS011;12616;52.470;13.436;2022-12-22T13:57:15;14.50;;;12.90;;
24435;SDS011;12616;52.470;13.436;2022-12-22T13:59:48;17.57;;;13.70;;
24435;SDS011;12616;52.470;13.436;2022-12-22T14:02:17;18.67;;;13.00;;
24435;SDS011;12616;52.470;13.436;2022-12-22T14:05:01;19.30;;;13.23;;
24435;SDS011;12616;52.470;13.436;2022-12-22T14:07:30;19.80;;;14.17;;
24435;SDS011;12616;52.470;13.436;2022-12-22T14:09:57;17.70;;;12.43;;
24435;SDS011;12616;52.470;13.436;2022-12-22T14:12:25;16.60;;;12.20;;
24435;SDS011;12616;52.470;13.436;2022-12-22T14:14:57;15.87;;;11.07;;
24435;SDS011;12616;52.470;13.436;2022-12-22T14:17:28;17.60;;;13.00;;
24435;SDS011;12616;52.470;13.436;2022-12-22T14:20:00;20.50;;;13.57;;
24435;SDS011;12616;52.470;13.436;2022-12-22T14:22:35;17.57;;;13.87;;
24435;SDS011;12616;52.470;13.436;2022-12-22T14:25:11;16.37;;;12.80;;
24435;SDS011;12616;52.470;13.436;2022-12-22T14:27:40;16.53;;;11.30;;
24435;SDS011;12616;52.470;13.436;2022-12-22T14:30:16;13.53;;;11.77;;
24435;SDS011;12616;52.470;13.436;2022-12-22T14:32:44;16.00;;;11.47;;
24435;SDS011;12616;52.470;13.436;2022-12-22T14:35:23;15.00;;;10.97;;
24435;SDS011;12616;52.470;13.436;2022-12-22T14:37:53;15.10;;;11.77;;
24435;SDS011;12616;52.470;13.436;2022-12-22T14:40:33;14.10;;;11.50;;
24435;SDS011;12616;52.470;13.436;2022-12-22T14:43:03;15.30;;;11.23;;
24435;SDS011;12616;52.470;13.436;2022-12-22T14:45:34;12.10;;;10.30;;
24435;SDS011;12616;52.470;13.436;2022-12-22T14:48:07;15.27;;;10.03;;
24435;SDS011;12616;52.470;13.436;2022-12-22T14:50:45;10.93;;;9.33;;
24435;SDS011;12616;52.470;13.436;2022-12-22T14:53:20;10.40;;;8.67;;
24435;SDS011;12616;52.470;13.436;2022-12-22T14:55:52;12.23;;;9.70;;
24435;SDS011;12616;52.470;13.436;2022-12-22T14:58:20;9.90;;;8.30;;
24435;SDS011;12616;52.470;13.436;2022-12-22T15:03:45;10.60;;;8.60;;
24435;SDS011;12616;52.470;13.436;2022-12-22T15:06:30;9.10;;;7.13;;
24435;SDS011;12616;52.470;13.436;2022-12-22T15:09:07;8.60;;;7.73;;
24435;SDS011;12616;52.470;13.436;2022-12-22T15:11:50;7.10;;;5.87;;
24435;SDS011;12616;52.470;13.436;2022-12-22T15:14:23;7.60;;;6.83;;
24435;SDS011;12616;52.470;13.436;2022-12-22T15:16:55;6.10;;;5.50;;
24435;SDS011;12616;52.470;13.436;2022-12-22T15:19:29;7.07;;;6.37;;
24435;SDS011;12616;52.470;13.436;2022-12-22T15:21:58;6.90;;;6.13;;
24435;SDS011;12616;52.470;13.436;2022-12-22T15:24:25;7.07;;;6.37;;
24435;SDS011;12616;52.470;13.436;2022-12-22T15:26:53;6.40;;;5.83;;
24435;SDS011;12616;52.470;13.436;2022-12-22T15:29:20;7.07;;;6.37;;
24435;SDS011;12616;52.470;13.436;2022-12-22T15:31:47;9.20;;;6.90;;
24435;SDS011;12616;52.470;13.436;2022-12-22T15:34:18;7.47;;;6.10;;
24435;SDS011;12616;52.470;13.436;2022-12-22T15:36:48;8.23;;;6.43;;
24435;SDS011;12616;52.470;13.436;2022-12-22T15:39:16;8.00;;;7.20;;
24435;SDS011;12616;52.470;13.436;2022-12-22T15:41:44;8.60;;;7.70;;
24435;SDS011;12616;52.470;13.436;2022-12-22T15:44:12;9.00;;;8.10;;
24435;SDS011;12616;52.470;13.436;2022-12-22T15:46:43;8.43;;;7.40;;
24435;SDS011;12616;52.470;13.436;2022-12-22T15:53:16;10.37;;;8.63;;
24435;SDS011;12616;52.470;13.436;2022-12-22T15:55:53;10.63;;;8.80;;
24435;SDS011;12616;52.470;13.436;2022-12-22T15:58:30;13.47;;;7.70;;
24435;SDS011;12616;52.470;13.436;2022-12-22T16:01:17;13.33;;;9.07;;
24435;SDS011;12616;52.470;13.436;2022-12-22T16:03:56;14.70;;;9.63;;
24435;SDS011;12616;52.470;13.436;2022-12-22T16:06:23;12.33;;;10.10;;
24435;SDS011;12616;52.470;13.436;2022-12-22T16:08:52;18.43;;;11.10;;
24435;SDS011;12616;52.470;13.436;2022-12-22T16:11:19;15.20;;;10.67;;
24435;SDS011;12616;52.470;13.436;2022-12-22T16:13:46;15.70;;;11.63;;
24435;SDS011;12616;52.470;13.436;2022-12-22T16:16:13;15.30;;;11.23;;
24435;SDS011;12616;52.470;13.436;2022-12-22T16:18:40;13.07;;;10.40;;
24435;SDS011;12616;52.470;13.436;2022-12-22T16:21:11;16.17;;;11.03;;
24435;SDS011;12616;52.470;13.436;2022-12-22T16:23:41;13.30;;;10.80;;
24435;SDS011;12616;52.470;13.436;2022-12-22T16:26:11;15.70;;;11.10;;
24435;SDS011;12616;52.470;13.436;2022-12-22T16:28:42;19.37;;;12.17;;
24435;SDS011;12616;52.470;13.436;2022-12-22T16:31:12;17.03;;;11.50;;
24435;SDS011;12616;52.470;13.436;2022-12-22T16:33:42;19.70;;;13.33;;
24435;SDS011;12616;52.470;13.436;2022-12-22T16:36:09;18.93;;;13.57;;
24435;SDS011;12616;52.470;13.436;2022-12-22T16:38:36;20.87;;;14.70;;
24435;SDS011;12616;52.470;13.436;2022-12-22T16:41:04;22.33;;;15.20;;
24435;SDS011;12616;52.470;13.436;2022-12-22T16:43:37;19.30;;;13.17;;
24435;SDS011;12616;52.470;13.436;2022-12-22T16:46:05;21.70;;;14.60;;
24435;SDS011;12616;52.470;13.436;2022-12-22T16:48:38;19.40;;;14.57;;
24435;SDS011;12616;52.470;13.436;2022-12-22T16:51:08;17.70;;;12.70;;
24435;SDS011;12616;52.470;13.436;2022-12-22T16:53:41;20.33;;;14.70;;
24435;SDS011;12616;52.470;13.436;2022-12-22T16:56:09;21.65;;;14.00;;
24435;SDS011;12616;52.470;13.436;2022-12-22T16:58:41;21.13;;;15.03;;
24435;SDS011;12616;52.470;13.436;2022-12-22T17:01:10;16.73;;;12.67;;
24435;SDS011;12616;52.470;13.436;2022-12-22T17:03:46;19.75;;;14.18;;